Time;durP1;ratioP1;P1;durP2;ratioP2;P2;SDS_P1;SDS_P2;PMS_P1;PMS_P2;Temp;Humidity;BMP_temperature;BMP_pressure;BME280_temperature;BME280_humidity;BME280_pressure;Samples;Min_cycle;Max_cycle;Signal;HPM_P1;HPM_P2
2022/09/20 00:00:33;;;;;;;1.17;0.80;;;10.10;99.90;;;;;;5053908;28;20220;-70
2022/09/20 00:03:00;;;;;;;0.80;0.80;;;10.10;99.90;;;;;;5067633;28;20207;-70
2022/09/20 00:05:27;;;;;;;1.70;0.93;;;10.10;99.90;;;;;;5054708;28;20306;-70
2022/09/20 00:07:54;;;;;;;2.73;0.83;;;10.10;99.90;;;;;;5047593;28;20575;-70
2022/09/20 00:10:23;;;;;;;2.17;1.20;;;10.10;99.90;;;;;;5064220;28;20598;-70
2022/09/20 00:12:50;;;;;;;0.93;0.70;;;10.10;99.90;;;;;;5047193;28;20204;-70
2022/09/20 00:15:17;;;;;;;2.33;0.90;;;10.00;99.90;;;;;;5047155;28;20295;-70
2022/09/20 00:17:44;;;;;;;1.13;0.70;;;10.00;99.90;;;;;;5064690;28;20635;-70
2022/09/20 00:20:11;;;;;;;1.37;1.03;;;10.00;99.90;;;;;;5067604;28;20209;-70
2022/09/20 00:22:37;;;;;;;0.90;0.90;;;9.90;99.90;;;;;;5067277;28;20254;-69
2022/09/20 00:25:05;;;;;;;3.13;1.30;;;9.90;99.90;;;;;;5059670;28;20255;-69
2022/09/20 00:27:34;;;;;;;2.30;0.80;;;9.90;99.90;;;;;;5067410;28;20851;-70
2022/09/20 00:30:00;;;;;;;0.90;0.90;;;10.00;99.90;;;;;;5067360;28;20342;-69
2022/09/20 00:32:27;;;;;;;1.33;0.80;;;10.00;99.90;;;;;;5066306;28;20370;-70
2022/09/20 00:35:09;;;;;;;1.70;0.97;;;10.00;99.90;;;;;;5067479;28;20208;-70
2022/09/20 00:37:38;;;;;;;1.00;0.70;;;10.10;99.90;;;;;;5066741;28;20254;-69
2022/09/20 00:40:08;;;;;;;1.23;0.70;;;10.10;99.90;;;;;;5050625;28;20254;-69
2022/09/20 00:42:36;;;;;;;0.80;0.80;;;10.10;99.90;;;;;;5050406;28;20234;-69
2022/09/20 00:45:05;;;;;;;0.70;0.70;;;10.10;99.90;;;;;;5066772;28;21242;-69
2022/09/20 00:47:38;;;;;;;1.63;0.80;;;10.10;99.90;;;;;;5066965;28;20211;-70
2022/09/20 00:50:20;;;;;;;1.13;0.73;;;10.20;99.90;;;;;;5067537;28;20713;-70
2022/09/20 00:52:50;;;;;;;0.83;0.60;;;10.20;99.90;;;;;;5067619;28;20623;-69
2022/09/20 00:55:18;;;;;;;1.90;0.70;;;10.20;99.90;;;;;;5065692;28;20302;-69
2022/09/20 00:57:47;;;;;;;0.90;0.57;;;10.20;99.90;;;;;;5067392;28;20501;-70
2022/09/20 01:00:15;;;;;;;0.73;0.60;;;10.20;99.90;;;;;;5047924;28;20295;-70
2022/09/20 01:02:46;;;;;;;2.40;0.67;;;10.20;99.90;;;;;;5047040;28;20250;-70
2022/09/20 01:05:15;;;;;;;1.67;0.60;;;10.20;99.90;;;;;;5047492;28;20283;-70
2022/09/20 01:07:43;;;;;;;2.73;0.80;;;10.20;99.90;;;;;;5065849;28;20235;-70
2022/09/20 01:10:10;;;;;;;0.70;0.70;;;10.20;99.90;;;;;;5067441;28;20283;-70
2022/09/20 01:12:39;;;;;;;1.70;0.80;;;10.20;99.90;;;;;;5066827;28;20698;-70
2022/09/20 01:15:09;;;;;;;0.90;0.90;;;10.20;99.90;;;;;;5053395;28;20640;-70
2022/09/20 01:17:40;;;;;;;4.10;0.70;;;10.20;99.90;;;;;;5047057;28;20208;-70
2022/09/20 01:20:19;;;;;;;1.27;0.73;;;10.20;99.90;;;;;;5047021;28;20552;-70
2022/09/20 01:23:01;;;;;;;0.80;0.77;;;10.20;99.90;;;;;;5048912;28;20200;-70
2022/09/20 01:25:47;;;;;;;2.17;0.80;;;10.10;99.90;;;;;;5066142;28;20789;-70
2022/09/20 01:28:16;;;;;;;0.73;0.47;;;10.10;99.90;;;;;;5070712;28;20203;-70
2022/09/20 01:30:47;;;;;;;0.70;0.60;;;10.10;99.90;;;;;;5059420;28;20423;-70
2022/09/20 01:33:24;;;;;;;1.07;0.60;;;10.00;99.90;;;;;;5050579;28;20715;-70
2022/09/20 01:35:54;;;;;;;1.77;0.93;;;10.00;99.90;;;;;;5050416;28;20697;-70
2022/09/20 01:38:35;;;;;;;1.03;0.67;;;10.00;99.90;;;;;;5053181;28;20236;-70
2022/09/20 01:41:09;;;;;;;1.63;0.70;;;10.00;99.90;;;;;;5050437;28;20208;-70
2022/09/20 01:43:43;;;;;;;0.60;0.60;;;10.00;99.90;;;;;;5065586;28;20222;-70
2022/09/20 01:46:28;;;;;;;3.73;0.67;;;10.00;99.90;;;;;;5069955;28;20646;-70
2022/09/20 01:49:05;;;;;;;1.10;0.50;;;10.00;99.90;;;;;;5070359;28;20200;-70
2022/09/20 01:52:10;;;;;;;1.20;0.77;;;10.00;99.90;;;;;;5069349;28;20942;-70
2022/09/20 01:55:15;;;;;;;1.53;0.90;;;10.00;99.90;;;;;;5054995;28;20204;-70
2022/09/20 01:58:10;;;;;;;3.87;1.00;;;10.00;99.90;;;;;;5068000;28;20206;-70
2022/09/20 02:00:54;;;;;;;1.37;0.90;;;10.00;99.90;;;;;;5068996;28;20207;-70
2022/09/20 02:04:06;;;;;;;1.43;0.80;;;10.00;99.90;;;;;;5049802;28;20199;-69
2022/09/20 02:06:50;;;;;;;1.33;0.50;;;10.00;99.90;;;;;;5043881;28;20208;-69
2022/09/20 02:10:04;;;;;;;1.53;0.90;;;10.00;99.90;;;;;;5058966;28;20207;-69
2022/09/20 02:12:48;;;;;;;0.67;0.67;;;10.00;99.90;;;;;;5046884;28;20230;-69
2022/09/20 02:15:40;;;;;;;1.27;0.83;;;10.00;99.90;;;;;;5069415;28;20199;-70
2022/09/20 02:18:20;;;;;;;1.60;0.97;;;10.00;99.90;;;;;;5065638;28;20231;-70
2022/09/20 02:20:55;;;;;;;2.80;0.60;;;10.00;99.90;;;;;;5049316;28;20200;-71
2022/09/20 02:23:33;;;;;;;2.07;0.80;;;10.00;99.90;;;;;;5049455;28;20191;-71
2022/09/20 02:26:10;;;;;;;1.83;0.70;;;10.00;99.90;;;;;;5069761;28;20214;-71
2022/09/20 02:28:52;;;;;;;0.80;0.80;;;10.00;99.90;;;;;;5069041;28;20709;-69
2022/09/20 02:31:30;;;;;;;1.50;0.60;;;10.00;99.90;;;;;;5058633;28;20227;-69
2022/09/20 02:34:28;;;;;;;0.80;0.80;;;10.00;99.90;;;;;;5054560;28;20204;-69
2022/09/20 02:37:12;;;;;;;1.90;0.83;;;10.00;99.90;;;;;;5028198;28;20235;-69
2022/09/20 02:39:55;;;;;;;1.70;0.90;;;10.00;99.90;;;;;;5053891;28;20192;-69
2022/09/20 02:42:30;;;;;;;0.93;0.70;;;10.00;99.90;;;;;;5054497;28;20198;-69
2022/09/20 02:45:04;;;;;;;0.83;0.83;;;10.00;99.90;;;;;;5067445;28;20282;-69
2022/09/20 02:47:35;;;;;;;2.73;0.90;;;10.00;99.90;;;;;;5056855;28;20218;-69
2022/09/20 02:50:18;;;;;;;1.60;1.47;;;10.00;99.90;;;;;;5059136;28;20210;-69
2022/09/20 02:52:56;;;;;;;1.50;1.40;;;10.00;99.90;;;;;;5056100;28;20255;-69
2022/09/20 02:55:32;;;;;;;2.87;1.00;;;10.00;99.90;;;;;;5061372;28;20415;-69
2022/09/20 02:58:23;;;;;;;0.73;0.73;;;10.00;99.90;;;;;;5057085;28;20211;-71
2022/09/20 03:00:55;;;;;;;0.93;0.70;;;10.10;99.90;;;;;;5064634;28;20200;-70
2022/09/20 03:03:38;;;;;;;0.77;0.70;;;10.10;99.90;;;;;;5046702;28;20199;-70
2022/09/20 03:06:11;;;;;;;0.80;0.70;;;10.10;99.90;;;;;;5061823;28;20305;-71
2022/09/20 03:08:48;;;;;;;0.70;0.70;;;10.00;99.90;;;;;;5068595;28;20590;-71
2022/09/20 03:11:24;;;;;;;1.00;1.00;;;10.00;99.90;;;;;;5068359;28;20222;-71
2022/09/20 03:14:08;;;;;;;0.73;0.73;;;10.10;99.90;;;;;;5067126;28;20202;-71
2022/09/20 03:16:46;;;;;;;1.53;0.83;;;10.10;99.90;;;;;;5066548;28;20203;-71
2022/09/20 03:19:23;;;;;;;0.80;0.80;;;10.10;99.90;;;;;;5066835;28;20192;-71
2022/09/20 03:22:00;;;;;;;1.33;0.73;;;10.10;99.90;;;;;;5067195;28;20191;-71
2022/09/20 03:24:41;;;;;;;1.60;0.93;;;10.10;99.90;;;;;;5059587;28;20259;-71
2022/09/20 03:27:19;;;;;;;1.63;1.00;;;10.00;99.90;;;;;;5047410;28;20193;-71
2022/09/20 03:30:01;;;;;;;3.50;0.90;;;10.00;99.90;;;;;;5050663;28;20207;-71
2022/09/20 03:32:43;;;;;;;0.70;0.70;;;10.10;99.90;;;;;;5067401;28;20591;-71
2022/09/20 03:35:22;;;;;;;0.73;0.73;;;10.00;99.90;;;;;;5067760;28;20658;-71
2022/09/20 03:38:02;;;;;;;1.27;0.80;;;10.00;99.90;;;;;;5067384;28;20235;-71
2022/09/20 03:40:57;;;;;;;1.03;0.90;;;10.10;99.90;;;;;;5048007;28;20192;-70
2022/09/20 03:43:38;;;;;;;1.83;0.97;;;9.90;99.90;;;;;;5047808;28;20208;-71
2022/09/20 03:46:17;;;;;;;1.77;0.90;;;9.90;99.90;;;;;;5057675;28;20207;-70
2022/09/20 03:49:32;;;;;;;1.77;0.80;;;9.90;99.90;;;;;;5067817;28;20203;-71
2022/09/20 03:52:10;;;;;;;1.20;0.97;;;9.90;99.90;;;;;;5020525;28;20235;-71
2022/09/20 03:54:58;;;;;;;1.63;1.03;;;10.00;99.90;;;;;;5059238;28;20282;-70
2022/09/20 03:57:48;;;;;;;1.80;0.90;;;9.90;99.90;;;;;;5067584;28;20196;-71
2022/09/20 04:00:24;;;;;;;1.33;1.20;;;10.00;99.90;;;;;;5067549;28;20212;-71
2022/09/20 04:03:03;;;;;;;1.33;1.23;;;10.00;99.90;;;;;;5067504;28;20215;-71
2022/09/20 04:05:38;;;;;;;1.90;0.80;;;10.00;99.90;;;;;;5067677;28;20195;-70
2022/09/20 04:08:16;;;;;;;1.63;1.00;;;10.00;99.90;;;;;;5067321;28;20194;-71
2022/09/20 04:10:53;;;;;;;1.77;0.70;;;10.00;99.90;;;;;;5067992;28;20191;-71
2022/09/20 04:13:35;;;;;;;2.03;1.10;;;9.90;99.90;;;;;;5067368;28;20219;-71
2022/09/20 04:16:22;;;;;;;1.27;0.83;;;9.90;99.90;;;;;;5067333;28;20199;-71
2022/09/20 04:18:55;;;;;;;2.57;0.93;;;9.80;99.90;;;;;;5067132;28;20199;-70
2022/09/20 04:21:28;;;;;;;1.13;0.80;;;9.90;99.90;;;;;;5067238;28;20199;-71
2022/09/20 04:24:00;;;;;;;1.90;0.93;;;9.90;99.90;;;;;;5067259;28;20240;-71
2022/09/20 04:26:31;;;;;;;2.50;1.10;;;9.90;99.90;;;;;;5067132;28;20191;-71
2022/09/20 04:29:07;;;;;;;0.80;0.80;;;10.00;99.90;;;;;;5067312;28;20218;-71
2022/09/20 04:31:40;;;;;;;1.03;0.90;;;9.90;99.90;;;;;;5066747;28;20228;-71
2022/09/20 04:34:15;;;;;;;2.13;1.07;;;9.90;99.90;;;;;;5067025;28;20253;-71
2022/09/20 04:36:56;;;;;;;0.90;0.90;;;9.90;99.90;;;;;;5065647;28;20237;-71
2022/09/20 04:39:37;;;;;;;1.33;0.80;;;9.90;99.90;;;;;;5046997;28;20192;-71
2022/09/20 04:42:38;;;;;;;1.23;1.03;;;9.90;99.90;;;;;;5054856;28;20195;-71
2022/09/20 04:45:33;;;;;;;1.10;1.00;;;10.00;99.90;;;;;;5049317;28;20203;-71
2022/09/20 04:48:41;;;;;;;0.77;0.77;;;10.00;99.90;;;;;;5047241;28;20192;-71
2022/09/20 04:51:36;;;;;;;1.63;0.90;;;10.00;99.90;;;;;;5021922;28;20208;-71
2022/09/20 04:54:27;;;;;;;1.07;1.07;;;9.90;99.90;;;;;;5047209;28;20598;-71
2022/09/20 04:57:13;;;;;;;1.10;1.00;;;9.90;99.90;;;;;;5024660;28;20279;-71
2022/09/20 05:00:00;;;;;;;2.67;0.87;;;9.90;99.90;;;;;;5051115;28;20196;-70
2022/09/20 05:03:00;;;;;;;3.53;1.00;;;9.90;99.90;;;;;;5050850;28;20208;-71
2022/09/20 05:06:06;;;;;;;0.90;0.90;;;9.90;99.90;;;;;;5053144;28;20212;-71
2022/09/20 05:09:12;;;;;;;2.10;1.53;;;9.90;99.90;;;;;;5049262;28;20643;-71
2022/09/20 05:11:54;;;;;;;1.57;1.20;;;9.90;99.90;;;;;;5050868;28;20192;-71
2022/09/20 05:14:37;;;;;;;3.67;1.53;;;9.90;99.90;;;;;;5051058;28;20570;-71
2022/09/20 05:17:24;;;;;;;2.07;1.00;;;9.90;99.90;;;;;;5050575;28;20192;-70
2022/09/20 05:20:21;;;;;;;2.30;1.20;;;9.80;99.90;;;;;;5051161;28;20286;-71
2022/09/20 05:23:23;;;;;;;1.37;1.00;;;9.80;99.90;;;;;;5057418;28;20257;-70
2022/09/20 05:26:10;;;;;;;1.20;0.90;;;9.90;99.90;;;;;;5070405;28;20691;-71
2022/09/20 05:28:48;;;;;;;2.53;0.80;;;9.90;99.90;;;;;;5060713;28;20248;-71
2022/09/20 05:31:21;;;;;;;1.60;1.03;;;10.00;99.90;;;;;;5070264;28;20195;-71
2022/09/20 05:33:55;;;;;;;1.20;1.10;;;10.00;99.90;;;;;;5070649;28;20219;-71
2022/09/20 05:36:31;;;;;;;1.97;1.17;;;10.00;99.90;;;;;;5070142;28;20195;-71
2022/09/20 05:39:05;;;;;;;1.57;0.90;;;10.00;99.90;;;;;;5063287;28;20699;-71
2022/09/20 05:41:41;;;;;;;3.47;1.10;;;10.00;99.90;;;;;;5069944;28;20204;-71
2022/09/20 05:44:15;;;;;;;4.73;1.03;;;10.00;99.90;;;;;;5069846;28;20200;-71
2022/09/20 05:46:53;;;;;;;2.20;1.10;;;10.00;99.90;;;;;;5061317;28;20286;-70
2022/09/20 05:49:36;;;;;;;1.53;0.90;;;10.00;99.90;;;;;;5049766;28;20207;-71
2022/09/20 05:52:40;;;;;;;1.83;0.90;;;10.00;99.90;;;;;;5049673;28;20215;-71
2022/09/20 05:55:39;;;;;;;1.90;1.20;;;9.90;99.90;;;;;;5049654;28;20208;-71
2022/09/20 05:58:18;;;;;;;1.33;1.17;;;9.90;99.90;;;;;;5049571;28;20200;-71
2022/09/20 06:00:50;;;;;;;1.87;1.30;;;9.90;99.90;;;;;;5049607;28;20195;-71
2022/09/20 06:03:30;;;;;;;1.30;1.20;;;9.80;99.90;;;;;;5049885;28;20211;-71
2022/09/20 06:06:06;;;;;;;3.80;1.23;;;9.90;99.90;;;;;;5049719;28;20196;-71
2022/09/20 06:08:51;;;;;;;1.77;0.90;;;9.90;99.90;;;;;;5049526;28;20208;-71
2022/09/20 06:11:43;;;;;;;2.37;1.27;;;9.90;99.90;;;;;;5049583;28;20203;-70
2022/09/20 06:14:21;;;;;;;1.40;0.80;;;9.90;99.90;;;;;;5049576;28;20203;-70
2022/09/20 06:16:57;;;;;;;1.80;1.00;;;9.90;99.90;;;;;;5049073;28;20646;-71
2022/09/20 06:19:34;;;;;;;4.90;1.27;;;9.90;99.90;;;;;;5059324;28;20646;-71
2022/09/20 06:22:10;;;;;;;1.37;1.13;;;9.80;99.90;;;;;;5069463;28;20600;-71
2022/09/20 06:24:42;;;;;;;1.57;1.10;;;9.90;99.90;;;;;;5069196;28;20238;-70
2022/09/20 06:27:13;;;;;;;0.90;0.90;;;9.80;99.90;;;;;;5069623;28;20274;-70
2022/09/20 06:29:44;;;;;;;2.70;1.20;;;9.80;99.90;;;;;;5068894;28;20188;-71
2022/09/20 06:32:11;;;;;;;1.50;0.93;;;9.90;99.90;;;;;;5069113;28;20219;-70
2022/09/20 06:34:38;;;;;;;2.20;1.33;;;9.90;99.90;;;;;;5069178;28;20207;-70
2022/09/20 06:42:59;;;;;;;2.20;1.17;;;9.80;99.90;;;;;;5060421;28;20238;-70
2022/09/20 06:45:26;;;;;;;1.20;1.10;;;9.80;99.90;;;;;;5048803;28;20208;-70
2022/09/20 06:47:53;;;;;;;1.97;1.10;;;9.90;99.90;;;;;;5049053;28;20216;-71
2022/09/20 06:50:19;;;;;;;1.37;1.20;;;9.80;99.90;;;;;;5056409;28;20295;-71
2022/09/20 06:52:48;;;;;;;1.77;1.50;;;9.80;99.90;;;;;;5068824;28;20227;-71
2022/09/20 06:55:21;;;;;;;1.90;1.30;;;9.80;99.90;;;;;;5069128;28;20212;-71
2022/09/20 06:57:48;;;;;;;3.00;1.80;;;9.80;99.90;;;;;;5068910;28;20198;-71
2022/09/20 07:00:16;;;;;;;2.03;1.20;;;9.80;99.90;;;;;;5068364;28;20207;-71
2022/09/20 07:02:43;;;;;;;4.23;1.77;;;9.80;99.90;;;;;;5068366;28;20207;-71
2022/09/20 07:05:14;;;;;;;3.70;1.60;;;9.70;99.90;;;;;;5068627;28;20245;-71
2022/09/20 07:07:42;;;;;;;1.70;1.30;;;9.70;99.90;;;;;;5068551;28;20584;-71
2022/09/20 07:10:11;;;;;;;6.87;1.60;;;9.80;99.90;;;;;;5068289;28;20800;-71
2022/09/20 07:12:38;;;;;;;2.80;1.70;;;9.90;99.90;;;;;;5068244;28;20231;-71
2022/09/20 07:15:06;;;;;;;4.10;2.00;;;10.00;99.90;;;;;;5068293;28;20209;-71
2022/09/20 07:17:33;;;;;;;3.47;2.10;;;10.00;99.90;;;;;;5067960;28;20214;-70
2022/09/20 07:20:00;;;;;;;5.03;1.87;;;10.20;99.90;;;;;;5067683;28;20261;-70
2022/09/20 07:22:27;;;;;;;4.40;2.20;;;10.30;99.90;;;;;;5067949;28;20218;-71
2022/09/20 07:24:54;;;;;;;3.90;3.00;;;10.30;99.90;;;;;;5067919;28;20769;-70
2022/09/20 07:27:22;;;;;;;2.33;1.90;;;10.30;99.90;;;;;;5067824;28;20700;-71
2022/09/20 07:29:49;;;;;;;3.60;2.30;;;10.40;99.90;;;;;;5068182;28;20211;-71
2022/09/20 07:32:16;;;;;;;2.87;2.07;;;10.40;99.90;;;;;;5067371;28;20215;-71
2022/09/20 07:34:43;;;;;;;2.97;2.33;;;10.40;99.90;;;;;;5067698;28;20204;-71
2022/09/20 07:37:10;;;;;;;3.87;2.30;;;10.60;99.90;;;;;;5067497;28;20239;-71
2022/09/20 07:39:37;;;;;;;3.00;2.17;;;10.50;99.90;;;;;;5066560;28;20693;-70
2022/09/20 07:42:05;;;;;;;2.50;2.30;;;10.60;99.90;;;;;;5068037;28;20210;-70
2022/09/20 07:44:33;;;;;;;4.63;2.47;;;10.70;99.90;;;;;;5067595;28;20704;-71
2022/09/20 07:47:01;;;;;;;3.97;2.30;;;10.70;99.90;;;;;;5067486;28;20214;-71
2022/09/20 07:49:29;;;;;;;5.50;2.40;;;10.80;99.90;;;;;;5067842;28;20212;-71
2022/09/20 07:51:56;;;;;;;3.60;2.60;;;10.90;99.90;;;;;;5067845;28;20208;-71
2022/09/20 07:54:23;;;;;;;3.47;2.40;;;11.00;99.90;;;;;;5061019;28;20339;-71
2022/09/20 07:56:50;;;;;;;3.20;2.50;;;11.00;99.90;;;;;;5047667;28;20215;-71
2022/09/20 07:59:17;;;;;;;6.10;2.83;;;11.10;99.90;;;;;;5047448;28;20550;-71
2022/09/20 08:01:45;;;;;;;4.60;2.23;;;11.10;99.90;;;;;;5047418;28;20211;-71
2022/09/20 08:04:12;;;;;;;3.97;2.30;;;11.30;99.90;;;;;;5047255;28;20673;-71
2022/09/20 08:06:40;;;;;;;3.67;2.40;;;11.30;99.90;;;;;;5046796;28;20745;-71
2022/09/20 08:09:07;;;;;;;3.20;2.27;;;11.40;99.90;;;;;;5047415;28;20690;-71
2022/09/20 08:11:35;;;;;;;2.67;2.43;;;11.50;99.90;;;;;;5047536;28;21011;-70
2022/09/20 08:14:03;;;;;;;3.87;2.33;;;11.60;99.90;;;;;;5047545;28;20321;-71
2022/09/20 08:16:31;;;;;;;3.90;2.50;;;11.60;99.90;;;;;;5047146;28;20204;-70
2022/09/20 08:19:01;;;;;;;3.17;2.20;;;11.70;99.90;;;;;;5047573;28;20208;-70
2022/09/20 08:21:30;;;;;;;5.23;2.70;;;11.80;99.90;;;;;;5047387;28;20220;-70
2022/09/20 08:23:58;;;;;;;7.10;2.70;;;11.80;99.90;;;;;;5050472;28;20239;-70
2022/09/20 08:26:26;;;;;;;3.83;2.20;;;11.80;99.90;;;;;;5064869;28;20209;-70
2022/09/20 08:28:54;;;;;;;3.47;3.23;;;11.90;99.90;;;;;;5055535;28;20217;-70
2022/09/20 08:31:23;;;;;;;4.03;2.70;;;12.00;99.90;;;;;;5057292;28;20208;-70
2022/09/20 08:33:52;;;;;;;4.03;2.87;;;12.00;99.90;;;;;;5051344;28;20240;-70
2022/09/20 08:36:23;;;;;;;6.20;3.90;;;12.00;99.90;;;;;;5066533;28;20211;-70
2022/09/20 08:38:50;;;;;;;3.00;2.73;;;12.10;99.90;;;;;;5065267;28;20200;-70
2022/09/20 08:41:21;;;;;;;3.53;2.97;;;12.20;99.90;;;;;;5051594;28;20234;-70
2022/09/20 08:43:51;;;;;;;5.40;2.97;;;12.20;99.90;;;;;;5051130;28;20685;-71
2022/09/20 08:46:23;;;;;;;5.90;3.00;;;12.30;99.90;;;;;;5051518;28;20199;-70
2022/09/20 08:48:51;;;;;;;3.50;3.20;;;12.30;99.90;;;;;;5051239;28;20655;-70
2022/09/20 08:51:18;;;;;;;5.40;3.40;;;12.30;99.90;;;;;;5051596;28;20514;-70
2022/09/20 08:53:49;;;;;;;3.30;3.10;;;12.20;99.90;;;;;;5052708;28;20236;-70
2022/09/20 08:56:16;;;;;;;4.40;3.40;;;12.30;99.90;;;;;;5071066;28;20203;-70
2022/09/20 08:58:43;;;;;;;3.90;3.50;;;12.40;99.90;;;;;;5071276;28;20290;-70
2022/09/20 09:01:18;;;;;;;4.07;3.77;;;12.50;99.90;;;;;;5070611;28;20614;-70
2022/09/20 09:03:44;;;;;;;5.13;4.00;;;12.60;99.90;;;;;;5070911;28;20642;-70
2022/09/20 09:06:14;;;;;;;4.47;3.87;;;12.40;99.90;;;;;;5071227;28;20219;-70
2022/09/20 09:08:43;;;;;;;3.60;3.30;;;12.40;99.90;;;;;;5070789;28;20192;-70
2022/09/20 09:11:14;;;;;;;4.63;4.10;;;12.50;99.90;;;;;;5071003;28;20203;-70
2022/09/20 09:13:50;;;;;;;4.33;3.97;;;12.50;99.90;;;;;;5070907;28;20220;-70
2022/09/20 09:16:18;;;;;;;6.20;3.43;;;12.50;99.90;;;;;;5070743;28;20626;-70
2022/09/20 09:18:48;;;;;;;4.80;4.13;;;12.60;99.90;;;;;;5070273;28;20203;-70
2022/09/20 09:21:19;;;;;;;4.20;3.60;;;12.70;99.90;;;;;;5070625;28;20295;-70
2022/09/20 09:23:51;;;;;;;4.57;3.40;;;12.80;99.90;;;;;;5058797;28;20228;-70
2022/09/20 09:26:21;;;;;;;6.67;3.57;;;12.80;99.90;;;;;;5067832;28;20195;-70
2022/09/20 09:29:03;;;;;;;4.70;3.50;;;12.90;99.90;;;;;;5050935;28;20219;-70
2022/09/20 09:31:29;;;;;;;4.33;3.93;;;12.90;99.90;;;;;;5056216;28;20199;-70
2022/09/20 09:33:56;;;;;;;7.40;3.97;;;13.00;99.90;;;;;;5070313;28;20246;-70
2022/09/20 09:36:24;;;;;;;4.50;3.63;;;13.10;99.90;;;;;;5070133;28;20243;-70
2022/09/20 09:39:12;;;;;;;4.10;3.80;;;13.20;99.90;;;;;;5056854;28;20208;-70
2022/09/20 09:41:42;;;;;;;4.07;3.63;;;13.20;99.90;;;;;;5070213;28;20212;-71
2022/09/20 09:44:22;;;;;;;4.50;3.87;;;13.40;99.90;;;;;;5069767;28;20250;-70
2022/09/20 09:46:50;;;;;;;3.70;3.40;;;13.40;99.90;;;;;;5069589;28;20195;-70
2022/09/20 09:49:19;;;;;;;3.97;3.67;;;13.50;99.90;;;;;;5069743;28;20207;-70
2022/09/20 09:52:02;;;;;;;3.93;3.53;;;13.40;99.90;;;;;;5069952;28;20570;-70
2022/09/20 09:54:31;;;;;;;3.83;3.57;;;13.40;99.90;;;;;;5070013;28;20235;-71
2022/09/20 09:57:15;;;;;;;5.87;3.60;;;13.50;99.90;;;;;;5069860;28;20200;-70
2022/09/20 09:59:53;;;;;;;3.93;3.63;;;13.50;99.90;;;;;;5069971;28;20278;-70
2022/09/20 10:02:37;;;;;;;4.70;3.03;;;13.40;99.90;;;;;;5069759;28;20196;-70
2022/09/20 10:05:12;;;;;;;4.03;3.10;;;13.60;99.90;;;;;;5070175;28;20225;-71
2022/09/20 10:07:44;;;;;;;3.80;3.50;;;13.70;99.90;;;;;;5069316;28;20580;-71
2022/09/20 10:10:23;;;;;;;5.13;3.17;;;13.60;99.90;;;;;;5069896;28;20192;-71
2022/09/20 10:13:03;;;;;;;5.90;3.43;;;13.40;99.90;;;;;;5069391;28;20206;-71
2022/09/20 10:15:38;;;;;;;4.40;3.40;;;13.40;99.90;;;;;;5069121;28;20210;-71
2022/09/20 10:18:26;;;;;;;4.63;2.97;;;13.40;99.90;;;;;;5069884;28;20249;-70
2022/09/20 10:21:06;;;;;;;4.03;2.97;;;13.30;99.90;;;;;;5069835;28;20675;-70
2022/09/20 10:23:55;;;;;;;4.50;3.00;;;13.30;99.90;;;;;;5061949;28;20235;-71
2022/09/20 10:26:43;;;;;;;4.30;2.50;;;13.30;99.90;;;;;;5049206;28;20290;-71
2022/09/20 10:29:20;;;;;;;3.10;2.80;;;13.60;99.90;;;;;;5067310;28;20212;-71
2022/09/20 10:32:00;;;;;;;3.10;2.80;;;13.70;99.90;;;;;;5069155;28;20191;-71
2022/09/20 10:34:57;;;;;;;3.10;2.80;;;13.80;99.90;;;;;;5068975;28;20238;-71
2022/09/20 10:37:36;;;;;;;5.93;2.57;;;13.90;99.90;;;;;;5068492;28;20600;-71
2022/09/20 10:40:12;;;;;;;3.27;2.23;;;14.00;99.90;;;;;;5052847;28;20207;-73
2022/09/20 10:45:41;;;;;;;4.43;2.00;;;14.20;99.90;;;;;;5048570;28;20235;-72
2022/09/20 10:48:18;;;;;;;2.97;2.00;;;14.30;99.90;;;;;;5048878;28;20595;-72
2022/09/20 10:50:52;;;;;;;3.57;2.47;;;14.40;99.90;;;;;;5048992;28;20198;-72
2022/09/20 10:53:29;;;;;;;3.80;2.60;;;14.40;99.90;;;;;;5048827;28;20205;-73
2022/09/20 10:56:08;;;;;;;3.57;2.33;;;14.40;99.90;;;;;;5067186;28;20211;-72
2022/09/20 10:59:21;;;;;;;2.43;2.00;;;14.60;99.90;;;;;;5068608;28;20196;-72
2022/09/20 11:02:02;;;;;;;3.53;2.23;;;14.70;99.90;;;;;;5049144;28;20258;-72
2022/09/20 11:05:08;;;;;;;3.47;2.10;;;14.70;99.90;;;;;;5048555;28;20620;-72
2022/09/20 11:07:51;;;;;;;3.40;2.37;;;14.90;99.90;;;;;;5048692;28;20214;-73
2022/09/20 11:10:21;;;;;;;2.70;2.50;;;14.90;99.90;;;;;;5048654;28;20198;-72
2022/09/20 11:12:53;;;;;;;3.67;2.40;;;15.00;99.90;;;;;;5048037;28;20196;-73
2022/09/20 11:15:25;;;;;;;2.47;2.20;;;15.00;99.90;;;;;;5051600;28;20227;-72
2022/09/20 11:18:04;;;;;;;2.23;2.03;;;14.90;99.90;;;;;;5067906;28;20200;-72
2022/09/20 11:20:35;;;;;;;2.80;2.57;;;14.80;99.90;;;;;;5054928;28;20581;-73
2022/09/20 11:23:10;;;;;;;5.33;2.47;;;14.60;99.90;;;;;;5048391;28;20200;-75
2022/09/20 11:25:43;;;;;;;2.37;2.17;;;14.60;99.90;;;;;;5051716;28;20691;-75
2022/09/20 11:28:14;;;;;;;2.97;2.37;;;14.40;99.90;;;;;;5048241;28;20686;-74
2022/09/20 11:30:48;;;;;;;2.17;1.83;;;14.40;99.90;;;;;;5047740;28;20647;-75
2022/09/20 11:33:22;;;;;;;2.87;2.43;;;14.30;99.90;;;;;;5048455;28;20209;-82
2022/09/20 11:35:52;;;;;;;2.47;2.30;;;14.20;99.90;;;;;;5048112;28;20241;-74
2022/09/20 11:38:23;;;;;;;3.43;2.47;;;14.10;99.90;;;;;;5060413;28;20242;-72
2022/09/20 11:40:54;;;;;;;4.43;2.17;;;14.00;99.90;;;;;;5047774;28;20643;-71
2022/09/20 11:43:30;;;;;;;3.90;2.40;;;14.00;99.90;;;;;;5048046;28;20250;-72
2022/09/20 11:46:02;;;;;;;3.20;2.60;;;14.00;99.90;;;;;;5046272;28;20290;-71
2022/09/20 11:48:35;;;;;;;2.20;2.10;;;14.00;99.90;;;;;;5046366;28;20666;-72
2022/09/20 11:51:28;;;;;;;2.80;1.80;;;13.90;99.90;;;;;;5046530;28;20203;-71
2022/09/20 11:54:18;;;;;;;2.37;2.13;;;13.90;99.90;;;;;;5046558;28;20216;-71
2022/09/20 11:56:50;;;;;;;2.30;2.10;;;13.90;99.90;;;;;;5054358;28;20195;-71
2022/09/20 11:59:29;;;;;;;2.53;2.27;;;13.90;99.90;;;;;;5066649;28;20278;-71
2022/09/20 12:01:58;;;;;;;1.90;1.80;;;13.90;99.90;;;;;;5067351;28;20204;-72
2022/09/20 12:04:28;;;;;;;4.20;2.30;;;14.10;99.90;;;;;;5067398;28;20208;-71
2022/09/20 12:07:02;;;;;;;2.73;2.03;;;14.50;99.90;;;;;;5067263;28;20199;-71
2022/09/20 12:09:31;;;;;;;2.40;2.20;;;15.00;99.90;;;;;;5067386;28;20226;-71
2022/09/20 12:11:59;;;;;;;2.57;1.70;;;15.10;99.90;;;;;;5067597;28;20203;-71
2022/09/20 12:14:28;;;;;;;3.00;1.60;;;15.10;99.90;;;;;;5067305;28;20265;-71
2022/09/20 12:16:56;;;;;;;2.57;1.67;;;14.90;99.90;;;;;;5067016;28;20693;-71
2022/09/20 12:19:39;;;;;;;1.73;1.63;;;14.70;99.90;;;;;;5067354;28;20269;-71
2022/09/20 12:22:28;;;;;;;1.40;1.30;;;14.60;99.90;;;;;;5046695;28;20207;-72
2022/09/20 12:25:36;;;;;;;1.60;1.50;;;14.60;99.90;;;;;;5058354;28;20235;-72
2022/09/20 12:28:04;;;;;;;2.53;1.70;;;14.50;99.90;;;;;;5067380;28;20215;-71
2022/09/20 12:30:32;;;;;;;1.90;1.80;;;14.50;99.90;;;;;;5067024;28;20247;-74
2022/09/20 12:33:01;;;;;;;2.47;2.00;;;14.60;99.90;;;;;;5067328;28;20769;-73
2022/09/20 12:36:13;;;;;;;4.00;2.30;;;14.60;99.90;;;;;;5067057;28;20238;-72
2022/09/20 12:39:04;;;;;;;4.70;2.47;;;14.60;99.90;;;;;;5062017;28;20695;-72
2022/09/20 12:41:49;;;;;;;2.10;1.60;;;14.50;99.90;;;;;;5037012;28;20212;-73
2022/09/20 12:44:36;;;;;;;2.37;1.90;;;14.30;99.90;;;;;;5047264;28;20200;-72
2022/09/20 12:47:07;;;;;;;2.83;2.20;;;14.20;99.90;;;;;;5047182;28;20192;-72
2022/09/20 12:52:52;;;;;;;2.17;2.03;;;14.10;99.90;;;;;;5049081;28;20719;-73
2022/09/20 12:55:32;;;;;;;3.07;1.20;;;14.00;99.90;;;;;;5051346;28;20244;-72
2022/09/20 12:58:03;;;;;;;0.97;0.80;;;13.80;99.90;;;;;;5047662;28;20196;-72
2022/09/20 13:00:35;;;;;;;1.77;0.83;;;13.50;99.90;;;;;;5056471;28;20579;-72
2022/09/20 13:03:11;;;;;;;0.63;0.63;;;13.20;99.90;;;;;;5064236;28;20294;-72
2022/09/20 13:05:39;;;;;;;1.90;1.10;;;13.10;99.90;;;;;;5059152;28;20195;-72
2022/09/20 13:08:14;;;;;;;2.33;0.90;;;13.00;99.90;;;;;;5061288;28;20226;-72
2022/09/20 13:10:47;;;;;;;3.70;1.10;;;13.00;99.90;;;;;;5067855;28;20203;-72
2022/09/20 13:13:31;;;;;;;1.03;1.00;;;13.00;99.90;;;;;;5059429;28;20822;-71
2022/09/20 13:16:00;;;;;;;2.10;0.73;;;13.00;99.90;;;;;;5052641;28;20688;-71
2022/09/20 13:18:28;;;;;;;1.80;0.70;;;13.00;99.90;;;;;;5047618;28;20205;-71
2022/09/20 13:20:57;;;;;;;1.10;0.50;;;12.90;99.90;;;;;;5050250;28;20223;-72
2022/09/20 13:23:27;;;;;;;0.87;0.70;;;12.80;99.90;;;;;;5057879;28;20223;-71
2022/09/20 13:25:57;;;;;;;0.70;0.70;;;12.80;99.90;;;;;;5069178;28;20574;-72
2022/09/20 13:28:33;;;;;;;1.00;0.60;;;12.70;99.90;;;;;;5069975;28;20234;-72
2022/09/20 13:31:30;;;;;;;1.20;0.80;;;12.70;99.90;;;;;;5069947;28;20191;-71
2022/09/20 13:34:12;;;;;;;0.70;0.70;;;12.60;99.90;;;;;;5069919;28;20294;-70
2022/09/20 13:36:39;;;;;;;1.00;0.90;;;12.60;99.90;;;;;;5068858;28;20242;-71
2022/09/20 13:39:07;;;;;;;0.53;0.53;;;12.70;99.90;;;;;;5049804;28;20212;-72
2022/09/20 13:41:35;;;;;;;1.10;0.73;;;13.00;99.90;;;;;;5055187;28;20248;-71
2022/09/20 13:44:02;;;;;;;0.57;0.57;;;13.50;99.90;;;;;;5057448;28;20218;-72
2022/09/20 13:46:31;;;;;;;2.93;0.50;;;14.10;99.90;;;;;;5060703;28;20742;-72